sensor_id;sensor_type;location;lat;lon;timestamp;P1;durP1;ratioP1;P2;durP2;ratioP2
20008;SDS011;10165;42.662;23.260;2022-08-19T00:02:00;4.70;;;4.20;;
20008;SDS011;10165;42.662;23.260;2022-08-19T00:04:29;5.07;;;3.77;;
20008;SDS011;10165;42.662;23.260;2022-08-19T00:06:59;6.33;;;3.97;;
20008;SDS011;10165;42.662;23.260;2022-08-19T00:09:26;7.70;;;4.10;;
20008;SDS011;10165;42.662;23.260;2022-08-19T00:11:54;4.87;;;3.90;;
20008;SDS011;10165;42.662;23.260;2022-08-19T00:14:23;9.20;;;4.33;;
20008;SDS011;10165;42.662;23.260;2022-08-19T00:16:52;6.50;;;4.27;;
20008;SDS011;10165;42.662;23.260;2022-08-19T00:19:21;4.63;;;4.23;;
20008;SDS011;10165;42.662;23.260;2022-08-19T00:21:49;4.47;;;3.90;;
20008;SDS011;10165;42.662;23.260;2022-08-19T00:24:16;6.23;;;4.43;;
20008;SDS011;10165;42.662;23.260;2022-08-19T00:26:43;3.90;;;3.50;;
20008;SDS011;10165;42.662;23.260;2022-08-19T00:29:13;5.23;;;3.97;;
20008;SDS011;10165;42.662;23.260;2022-08-19T00:31:42;4.30;;;3.53;;
20008;SDS011;10165;42.662;23.260;2022-08-19T00:34:10;4.20;;;3.80;;
20008;SDS011;10165;42.662;23.260;2022-08-19T00:36:38;8.50;;;3.97;;
20008;SDS011;10165;42.662;23.260;2022-08-19T00:39:06;6.30;;;4.07;;
20008;SDS011;10165;42.662;23.260;2022-08-19T00:41:33;7.50;;;4.40;;
20008;SDS011;10165;42.662;23.260;2022-08-19T00:46:34;6.60;;;3.53;;
20008;SDS011;10165;42.662;23.260;2022-08-19T00:49:10;3.83;;;3.43;;
20008;SDS011;10165;42.662;23.260;2022-08-19T00:51:47;3.80;;;3.43;;
20008;SDS011;10165;42.662;23.260;2022-08-19T00:54:18;4.17;;;3.73;;
20008;SDS011;10165;42.662;23.260;2022-08-19T00:56:53;5.03;;;3.73;;
20008;SDS011;10165;42.662;23.260;2022-08-19T00:59:21;4.50;;;3.83;;
20008;SDS011;10165;42.662;23.260;2022-08-19T01:02:08;4.57;;;3.50;;
20008;SDS011;10165;42.662;23.260;2022-08-19T01:04:35;5.27;;;3.70;;
20008;SDS011;10165;42.662;23.260;2022-08-19T01:07:02;7.43;;;4.10;;
20008;SDS011;10165;42.662;23.260;2022-08-19T01:09:29;5.30;;;3.40;;
20008;SDS011;10165;42.662;23.260;2022-08-19T01:11:56;4.10;;;3.70;;
20008;SDS011;10165;42.662;23.260;2022-08-19T01:14:23;5.20;;;3.70;;
20008;SDS011;10165;42.662;23.260;2022-08-19T01:16:51;6.53;;;3.80;;
20008;SDS011;10165;42.662;23.260;2022-08-19T01:19:24;4.37;;;3.57;;
20008;SDS011;10165;42.662;23.260;2022-08-19T01:24:58;4.50;;;3.77;;
20008;SDS011;10165;42.662;23.260;2022-08-19T01:27:25;4.83;;;3.90;;
20008;SDS011;10165;42.662;23.260;2022-08-19T01:29:54;7.53;;;3.93;;
20008;SDS011;10165;42.662;23.260;2022-08-19T01:32:22;4.27;;;3.73;;
20008;SDS011;10165;42.662;23.260;2022-08-19T01:34:59;5.17;;;3.93;;
20008;SDS011;10165;42.662;23.260;2022-08-19T01:37:28;4.77;;;4.13;;
20008;SDS011;10165;42.662;23.260;2022-08-19T01:39:56;10.60;;;3.80;;
20008;SDS011;10165;42.662;23.260;2022-08-19T01:42:23;10.77;;;4.30;;
20008;SDS011;10165;42.662;23.260;2022-08-19T01:44:55;4.47;;;4.07;;
20008;SDS011;10165;42.662;23.260;2022-08-19T01:47:22;3.93;;;3.57;;
20008;SDS011;10165;42.662;23.260;2022-08-19T01:49:49;4.97;;;3.77;;
20008;SDS011;10165;42.662;23.260;2022-08-19T01:52:16;6.33;;;4.00;;
20008;SDS011;10165;42.662;23.260;2022-08-19T01:54:42;4.17;;;3.77;;
20008;SDS011;10165;42.662;23.260;2022-08-19T01:57:11;5.13;;;3.80;;
20008;SDS011;10165;42.662;23.260;2022-08-19T01:59:41;8.30;;;4.20;;
20008;SDS011;10165;42.662;23.260;2022-08-19T02:02:09;4.27;;;3.70;;
20008;SDS011;10165;42.662;23.260;2022-08-19T02:04:39;7.83;;;4.20;;
20008;SDS011;10165;42.662;23.260;2022-08-19T02:07:06;6.83;;;4.30;;
20008;SDS011;10165;42.662;23.260;2022-08-19T02:09:34;4.47;;;3.97;;
20008;SDS011;10165;42.662;23.260;2022-08-19T02:12:01;5.83;;;3.70;;
20008;SDS011;10165;42.662;23.260;2022-08-19T02:14:29;4.17;;;3.77;;
20008;SDS011;10165;42.662;23.260;2022-08-19T02:16:56;5.33;;;3.87;;
20008;SDS011;10165;42.662;23.260;2022-08-19T02:19:23;5.90;;;3.97;;
20008;SDS011;10165;42.662;23.260;2022-08-19T02:21:50;5.23;;;4.20;;
20008;SDS011;10165;42.662;23.260;2022-08-19T02:24:16;5.47;;;4.47;;
20008;SDS011;10165;42.662;23.260;2022-08-19T02:26:43;5.40;;;4.50;;
20008;SDS011;10165;42.662;23.260;2022-08-19T02:29:10;5.17;;;3.93;;
20008;SDS011;10165;42.662;23.260;2022-08-19T02:31:36;5.00;;;3.90;;
20008;SDS011;10165;42.662;23.260;2022-08-19T02:34:03;5.07;;;3.90;;
20008;SDS011;10165;42.662;23.260;2022-08-19T02:36:30;6.67;;;4.03;;
20008;SDS011;10165;42.662;23.260;2022-08-19T02:38:57;5.87;;;3.80;;
20008;SDS011;10165;42.662;23.260;2022-08-19T02:41:27;4.33;;;3.93;;
20008;SDS011;10165;42.662;23.260;2022-08-19T02:43:58;8.50;;;4.37;;
20008;SDS011;10165;42.662;23.260;2022-08-19T02:46:47;6.27;;;4.40;;
20008;SDS011;10165;42.662;23.260;2022-08-19T02:49:17;5.93;;;4.13;;
20008;SDS011;10165;42.662;23.260;2022-08-19T02:51:45;6.20;;;4.20;;
20008;SDS011;10165;42.662;23.260;2022-08-19T02:54:13;8.13;;;4.37;;
20008;SDS011;10165;42.662;23.260;2022-08-19T02:56:42;10.23;;;4.40;;
20008;SDS011;10165;42.662;23.260;2022-08-19T02:59:10;5.07;;;4.47;;
20008;SDS011;10165;42.662;23.260;2022-08-19T03:01:39;9.23;;;4.53;;
20008;SDS011;10165;42.662;23.260;2022-08-19T03:04:08;5.77;;;4.20;;
20008;SDS011;10165;42.662;23.260;2022-08-19T03:06:39;4.63;;;4.23;;
20008;SDS011;10165;42.662;23.260;2022-08-19T03:09:09;8.23;;;4.23;;
20008;SDS011;10165;42.662;23.260;2022-08-19T03:11:37;6.17;;;4.60;;
20008;SDS011;10165;42.662;23.260;2022-08-19T03:14:04;5.90;;;4.17;;
20008;SDS011;10165;42.662;23.260;2022-08-19T03:16:34;5.20;;;4.23;;
20008;SDS011;10165;42.662;23.260;2022-08-19T03:19:07;6.47;;;4.40;;
20008;SDS011;10165;42.662;23.260;2022-08-19T03:21:34;7.27;;;4.67;;
20008;SDS011;10165;42.662;23.260;2022-08-19T03:24:02;12.63;;;4.30;;
20008;SDS011;10165;42.662;23.260;2022-08-19T03:26:32;7.63;;;4.63;;
20008;SDS011;10165;42.662;23.260;2022-08-19T03:29:01;6.87;;;4.30;;
20008;SDS011;10165;42.662;23.260;2022-08-19T03:31:30;9.17;;;4.63;;
20008;SDS011;10165;42.662;23.260;2022-08-19T03:34:19;4.67;;;4.00;;
20008;SDS011;10165;42.662;23.260;2022-08-19T03:36:53;6.40;;;3.87;;
20008;SDS011;10165;42.662;23.260;2022-08-19T03:39:22;5.23;;;4.47;;
20008;SDS011;10165;42.662;23.260;2022-08-19T03:41:51;6.73;;;3.93;;
20008;SDS011;10165;42.662;23.260;2022-08-19T03:44:39;8.23;;;4.23;;
20008;SDS011;10165;42.662;23.260;2022-08-19T03:47:05;5.50;;;4.70;;
20008;SDS011;10165;42.662;23.260;2022-08-19T03:49:33;6.33;;;4.87;;
20008;SDS011;10165;42.662;23.260;2022-08-19T03:52:02;5.60;;;4.83;;
20008;SDS011;10165;42.662;23.260;2022-08-19T03:54:33;5.77;;;4.77;;
20008;SDS011;10165;42.662;23.260;2022-08-19T03:57:00;4.90;;;4.40;;
20008;SDS011;10165;42.662;23.260;2022-08-19T03:59:29;9.00;;;4.50;;
20008;SDS011;10165;42.662;23.260;2022-08-19T04:01:58;7.07;;;4.47;;
20008;SDS011;10165;42.662;23.260;2022-08-19T04:04:27;9.63;;;5.20;;
20008;SDS011;10165;42.662;23.260;2022-08-19T04:06:57;5.30;;;4.50;;
20008;SDS011;10165;42.662;23.260;2022-08-19T04:09:24;7.20;;;4.50;;
20008;SDS011;10165;42.662;23.260;2022-08-19T04:11:53;8.23;;;4.83;;
20008;SDS011;10165;42.662;23.260;2022-08-19T04:14:23;5.70;;;4.63;;
20008;SDS011;10165;42.662;23.260;2022-08-19T04:16:52;5.30;;;4.77;;
20008;SDS011;10165;42.662;23.260;2022-08-19T04:19:19;5.73;;;4.27;;
20008;SDS011;10165;42.662;23.260;2022-08-19T04:21:48;10.97;;;5.57;;
20008;SDS011;10165;42.662;23.260;2022-08-19T04:24:16;7.17;;;4.40;;
20008;SDS011;10165;42.662;23.260;2022-08-19T04:26:44;11.50;;;4.53;;
20008;SDS011;10165;42.662;23.260;2022-08-19T04:29:16;7.63;;;4.70;;
20008;SDS011;10165;42.662;23.260;2022-08-19T04:31:45;7.93;;;4.90;;
20008;SDS011;10165;42.662;23.260;2022-08-19T04:34:13;8.93;;;4.43;;
20008;SDS011;10165;42.662;23.260;2022-08-19T04:36:42;8.77;;;4.50;;
20008;SDS011;10165;42.662;23.260;2022-08-19T04:39:12;9.03;;;5.03;;
20008;SDS011;10165;42.662;23.260;2022-08-19T04:41:41;7.17;;;4.60;;
20008;SDS011;10165;42.662;23.260;2022-08-19T04:44:26;9.77;;;6.10;;
20008;SDS011;10165;42.662;23.260;2022-08-19T04:46:58;16.97;;;7.03;;
20008;SDS011;10165;42.662;23.260;2022-08-19T04:49:26;17.53;;;7.47;;
20008;SDS011;10165;42.662;23.260;2022-08-19T04:51:53;11.10;;;6.37;;
20008;SDS011;10165;42.662;23.260;2022-08-19T04:54:22;12.50;;;6.03;;
20008;SDS011;10165;42.662;23.260;2022-08-19T04:57:04;14.70;;;6.73;;
20008;SDS011;10165;42.662;23.260;2022-08-19T04:59:33;15.80;;;7.07;;
20008;SDS011;10165;42.662;23.260;2022-08-19T05:02:01;8.10;;;6.17;;
20008;SDS011;10165;42.662;23.260;2022-08-19T05:04:29;9.57;;;6.60;;
20008;SDS011;10165;42.662;23.260;2022-08-19T05:07:00;9.93;;;5.77;;
20008;SDS011;10165;42.662;23.260;2022-08-19T05:09:28;16.97;;;6.77;;
20008;SDS011;10165;42.662;23.260;2022-08-19T05:12:16;10.40;;;6.43;;
20008;SDS011;10165;42.662;23.260;2022-08-19T05:14:44;16.30;;;6.60;;
20008;SDS011;10165;42.662;23.260;2022-08-19T05:17:14;14.20;;;5.90;;
20008;SDS011;10165;42.662;23.260;2022-08-19T05:20:01;10.73;;;6.07;;
20008;SDS011;10165;42.662;23.260;2022-08-19T05:22:47;6.27;;;5.30;;
20008;SDS011;10165;42.662;23.260;2022-08-19T05:25:16;8.60;;;5.70;;
20008;SDS011;10165;42.662;23.260;2022-08-19T05:27:45;8.87;;;5.87;;
20008;SDS011;10165;42.662;23.260;2022-08-19T05:30:13;7.90;;;6.03;;
20008;SDS011;10165;42.662;23.260;2022-08-19T05:32:40;8.70;;;5.63;;
20008;SDS011;10165;42.662;23.260;2022-08-19T05:35:08;7.67;;;5.43;;
20008;SDS011;10165;42.662;23.260;2022-08-19T05:37:35;7.53;;;5.77;;
20008;SDS011;10165;42.662;23.260;2022-08-19T05:40:03;9.00;;;6.53;;
20008;SDS011;10165;42.662;23.260;2022-08-19T05:42:30;9.00;;;6.20;;
20008;SDS011;10165;42.662;23.260;2022-08-19T05:44:57;15.53;;;7.13;;
20008;SDS011;10165;42.662;23.260;2022-08-19T05:47:23;10.67;;;6.00;;
20008;SDS011;10165;42.662;23.260;2022-08-19T05:49:50;9.00;;;6.17;;
20008;SDS011;10165;42.662;23.260;2022-08-19T05:52:17;18.60;;;6.63;;
20008;SDS011;10165;42.662;23.260;2022-08-19T05:54:50;10.97;;;5.90;;
20008;SDS011;10165;42.662;23.260;2022-08-19T05:57:18;11.80;;;6.33;;
20008;SDS011;10165;42.662;23.260;2022-08-19T05:59:45;10.43;;;6.37;;
20008;SDS011;10165;42.662;23.260;2022-08-19T06:02:18;9.43;;;6.20;;
20008;SDS011;10165;42.662;23.260;2022-08-19T06:04:44;9.83;;;6.63;;
20008;SDS011;10165;42.662;23.260;2022-08-19T06:07:11;12.73;;;6.20;;
20008;SDS011;10165;42.662;23.260;2022-08-19T06:09:38;11.43;;;6.53;;
20008;SDS011;10165;42.662;23.260;2022-08-19T06:12:06;12.20;;;6.90;;
20008;SDS011;10165;42.662;23.260;2022-08-19T06:14:34;11.70;;;6.77;;
20008;SDS011;10165;42.662;23.260;2022-08-19T06:17:07;12.53;;;6.77;;
20008;SDS011;10165;42.662;23.260;2022-08-19T06:19:34;12.90;;;6.27;;
20008;SDS011;10165;42.662;23.260;2022-08-19T06:22:06;14.73;;;7.10;;
20008;SDS011;10165;42.662;23.260;2022-08-19T06:24:34;15.97;;;7.33;;
20008;SDS011;10165;42.662;23.260;2022-08-19T06:27:02;11.70;;;7.03;;
20008;SDS011;10165;42.662;23.260;2022-08-19T06:29:32;16.73;;;7.77;;
20008;SDS011;10165;42.662;23.260;2022-08-19T06:32:00;11.23;;;7.13;;
20008;SDS011;10165;42.662;23.260;2022-08-19T06:34:30;12.97;;;7.30;;
20008;SDS011;10165;42.662;23.260;2022-08-19T06:36:59;22.90;;;8.70;;
20008;SDS011;10165;42.662;23.260;2022-08-19T06:39:31;14.77;;;9.07;;
20008;SDS011;10165;42.662;23.260;2022-08-19T06:42:01;11.10;;;7.97;;
20008;SDS011;10165;42.662;23.260;2022-08-19T06:44:34;13.87;;;8.70;;
20008;SDS011;10165;42.662;23.260;2022-08-19T06:47:09;10.30;;;7.60;;
20008;SDS011;10165;42.662;23.260;2022-08-19T06:49:54;11.40;;;7.73;;
20008;SDS011;10165;42.662;23.260;2022-08-19T06:52:31;10.93;;;7.47;;
20008;SDS011;10165;42.662;23.260;2022-08-19T06:55:02;11.20;;;6.70;;
20008;SDS011;10165;42.662;23.260;2022-08-19T06:57:31;8.70;;;6.33;;
20008;SDS011;10165;42.662;23.260;2022-08-19T06:59:59;9.37;;;7.37;;
20008;SDS011;10165;42.662;23.260;2022-08-19T07:02:26;14.87;;;6.47;;
20008;SDS011;10165;42.662;23.260;2022-08-19T07:04:53;16.07;;;6.47;;
20008;SDS011;10165;42.662;23.260;2022-08-19T07:07:20;12.13;;;6.47;;
20008;SDS011;10165;42.662;23.260;2022-08-19T07:09:48;9.23;;;5.30;;
20008;SDS011;10165;42.662;23.260;2022-08-19T07:12:29;10.47;;;5.67;;
20008;SDS011;10165;42.662;23.260;2022-08-19T07:15:06;8.13;;;5.67;;
20008;SDS011;10165;42.662;23.260;2022-08-19T07:17:35;7.17;;;5.43;;
20008;SDS011;10165;42.662;23.260;2022-08-19T07:20:07;7.73;;;5.43;;
20008;SDS011;10165;42.662;23.260;2022-08-19T07:22:38;7.40;;;6.00;;
20008;SDS011;10165;42.662;23.260;2022-08-19T07:25:08;8.63;;;6.17;;
20008;SDS011;10165;42.662;23.260;2022-08-19T07:27:36;7.83;;;5.70;;
20008;SDS011;10165;42.662;23.260;2022-08-19T07:30:19;10.10;;;6.30;;
20008;SDS011;10165;42.662;23.260;2022-08-19T07:32:46;9.73;;;6.23;;
20008;SDS011;10165;42.662;23.260;2022-08-19T07:35:15;7.10;;;5.90;;
20008;SDS011;10165;42.662;23.260;2022-08-19T07:37:45;16.43;;;6.03;;
20008;SDS011;10165;42.662;23.260;2022-08-19T07:40:12;10.27;;;5.70;;
20008;SDS011;10165;42.662;23.260;2022-08-19T07:42:42;12.33;;;6.10;;
20008;SDS011;10165;42.662;23.260;2022-08-19T07:45:09;8.17;;;6.73;;
20008;SDS011;10165;42.662;23.260;2022-08-19T07:47:36;18.53;;;5.70;;
20008;SDS011;10165;42.662;23.260;2022-08-19T07:50:16;8.93;;;5.73;;
20008;SDS011;10165;42.662;23.260;2022-08-19T07:52:44;9.80;;;6.10;;
20008;SDS011;10165;42.662;23.260;2022-08-19T07:55:16;7.87;;;5.57;;
20008;SDS011;10165;42.662;23.260;2022-08-19T07:58:08;6.23;;;5.63;;
20008;SDS011;10165;42.662;23.260;2022-08-19T08:00:36;9.40;;;5.80;;
20008;SDS011;10165;42.662;23.260;2022-08-19T08:03:03;8.53;;;5.50;;
20008;SDS011;10165;42.662;23.260;2022-08-19T08:05:30;7.37;;;5.23;;
20008;SDS011;10165;42.662;23.260;2022-08-19T08:08:16;8.20;;;5.33;;
20008;SDS011;10165;42.662;23.260;2022-08-19T08:11:01;8.40;;;5.50;;
20008;SDS011;10165;42.662;23.260;2022-08-19T08:13:32;8.60;;;5.53;;
20008;SDS011;10165;42.662;23.260;2022-08-19T08:16:04;6.83;;;5.93;;
20008;SDS011;10165;42.662;23.260;2022-08-19T08:18:35;7.00;;;5.63;;
20008;SDS011;10165;42.662;23.260;2022-08-19T08:21:16;9.50;;;5.10;;
20008;SDS011;10165;42.662;23.260;2022-08-19T08:23:42;11.30;;;5.43;;
20008;SDS011;10165;42.662;23.260;2022-08-19T08:26:09;9.93;;;6.47;;
20008;SDS011;10165;42.662;23.260;2022-08-19T08:28:38;7.97;;;5.13;;
20008;SDS011;10165;42.662;23.260;2022-08-19T08:31:06;9.70;;;5.07;;
20008;SDS011;10165;42.662;23.260;2022-08-19T08:33:35;6.55;;;4.95;;
20008;SDS011;10165;42.662;23.260;2022-08-19T08:36:04;5.30;;;3.85;;
20008;SDS011;10165;42.662;23.260;2022-08-19T08:38:32;6.57;;;4.50;;
20008;SDS011;10165;42.662;23.260;2022-08-19T08:41:16;7.97;;;4.03;;
20008;SDS011;10165;42.662;23.260;2022-08-19T08:44:03;5.38;;;3.90;;
20008;SDS011;10165;42.662;23.260;2022-08-19T08:46:35;7.30;;;3.88;;
20008;SDS011;10165;42.662;23.260;2022-08-19T08:51:51;7.03;;;4.07;;
20008;SDS011;10165;42.662;23.260;2022-08-19T08:54:27;5.53;;;3.65;;
20008;SDS011;10165;42.662;23.260;2022-08-19T08:57:02;4.93;;;3.00;;
20008;SDS011;10165;42.662;23.260;2022-08-19T08:59:35;7.30;;;4.18;;
20008;SDS011;10165;42.662;23.260;2022-08-19T09:02:05;8.00;;;4.47;;
20008;SDS011;10165;42.662;23.260;2022-08-19T09:04:31;10.38;;;4.57;;
20008;SDS011;10165;42.662;23.260;2022-08-19T09:18:54;5.43;;;3.67;;
20008;SDS011;10165;42.662;23.260;2022-08-19T09:21:24;5.53;;;3.67;;
20008;SDS011;10165;42.662;23.260;2022-08-19T09:23:58;5.65;;;3.25;;
20008;SDS011;10165;42.662;23.260;2022-08-19T09:26:28;5.65;;;3.10;;
20008;SDS011;10165;42.662;23.260;2022-08-19T09:29:17;6.95;;;3.30;;
20008;SDS011;10165;42.662;23.260;2022-08-19T09:31:47;6.93;;;3.28;;
20008;SDS011;10165;42.662;23.260;2022-08-19T09:34:17;6.65;;;3.80;;
20008;SDS011;10165;42.662;23.260;2022-08-19T09:36:47;5.40;;;3.72;;
20008;SDS011;10165;42.662;23.260;2022-08-19T09:39:19;4.18;;;3.50;;
20008;SDS011;10165;42.662;23.260;2022-08-19T09:41:46;6.15;;;3.50;;
20008;SDS011;10165;42.662;23.260;2022-08-19T09:44:14;4.32;;;3.40;;
20008;SDS011;10165;42.662;23.260;2022-08-19T09:46:41;5.15;;;3.75;;
20008;SDS011;10165;42.662;23.260;2022-08-19T09:49:08;4.82;;;3.67;;
20008;SDS011;10165;42.662;23.260;2022-08-19T09:51:35;4.38;;;3.05;;
20008;SDS011;10165;42.662;23.260;2022-08-19T09:54:03;4.63;;;3.42;;
20008;SDS011;10165;42.662;23.260;2022-08-19T09:56:31;6.75;;;3.35;;
20008;SDS011;10165;42.662;23.260;2022-08-19T09:58:59;5.38;;;3.47;;
20008;SDS011;10165;42.662;23.260;2022-08-19T10:01:28;5.47;;;3.60;;
20008;SDS011;10165;42.662;23.260;2022-08-19T10:03:56;9.75;;;3.85;;
20008;SDS011;10165;42.662;23.260;2022-08-19T10:06:26;3.90;;;3.22;;
20008;SDS011;10165;42.662;23.260;2022-08-19T10:09:11;5.47;;;3.67;;
20008;SDS011;10165;42.662;23.260;2022-08-19T10:11:42;8.35;;;3.47;;
20008;SDS011;10165;42.662;23.260;2022-08-19T10:14:20;15.73;;;3.33;;
20008;SDS011;10165;42.662;23.260;2022-08-19T10:16:49;5.10;;;3.17;;
20008;SDS011;10165;42.662;23.260;2022-08-19T10:19:18;5.70;;;3.47;;
20008;SDS011;10165;42.662;23.260;2022-08-19T10:21:51;4.90;;;3.00;;
20008;SDS011;10165;42.662;23.260;2022-08-19T10:24:18;3.50;;;2.88;;
20008;SDS011;10165;42.662;23.260;2022-08-19T10:26:46;6.35;;;3.05;;
20008;SDS011;10165;42.662;23.260;2022-08-19T10:29:24;4.00;;;2.65;;
20008;SDS011;10165;42.662;23.260;2022-08-19T10:31:59;11.07;;;3.60;;
20008;SDS011;10165;42.662;23.260;2022-08-19T10:34:36;6.47;;;3.20;;
20008;SDS011;10165;42.662;23.260;2022-08-19T10:37:14;4.07;;;3.00;;
20008;SDS011;10165;42.662;23.260;2022-08-19T10:39:49;4.38;;;3.10;;
20008;SDS011;10165;42.662;23.260;2022-08-19T10:42:16;5.47;;;3.85;;
20008;SDS011;10165;42.662;23.260;2022-08-19T10:44:44;4.00;;;3.60;;
20008;SDS011;10165;42.662;23.260;2022-08-19T10:47:13;6.28;;;3.60;;
20008;SDS011;10165;42.662;23.260;2022-08-19T10:49:49;6.03;;;3.65;;
20008;SDS011;10165;42.662;23.260;2022-08-19T10:52:37;3.25;;;2.72;;
20008;SDS011;10165;42.662;23.260;2022-08-19T10:55:16;4.00;;;3.35;;
20008;SDS011;10165;42.662;23.260;2022-08-19T10:58:02;5.18;;;3.55;;
20008;SDS011;10165;42.662;23.260;2022-08-19T11:00:30;3.63;;;3.28;;
20008;SDS011;10165;42.662;23.260;2022-08-19T11:02:57;5.57;;;3.83;;
20008;SDS011;10165;42.662;23.260;2022-08-19T11:05:24;3.92;;;3.53;;
20008;SDS011;10165;42.662;23.260;2022-08-19T11:07:51;5.63;;;4.00;;
20008;SDS011;10165;42.662;23.260;2022-08-19T11:10:18;8.40;;;3.92;;
20008;SDS011;10165;42.662;23.260;2022-08-19T11:12:47;8.00;;;3.88;;
20008;SDS011;10165;42.662;23.260;2022-08-19T11:15:14;5.57;;;4.05;;
20008;SDS011;10165;42.662;23.260;2022-08-19T11:17:41;7.03;;;3.97;;
20008;SDS011;10165;42.662;23.260;2022-08-19T11:20:10;6.82;;;3.92;;
20008;SDS011;10165;42.662;23.260;2022-08-19T11:22:38;5.75;;;3.70;;
20008;SDS011;10165;42.662;23.260;2022-08-19T11:25:08;4.20;;;3.80;;
20008;SDS011;10165;42.662;23.260;2022-08-19T11:27:40;4.65;;;3.70;;
20008;SDS011;10165;42.662;23.260;2022-08-19T11:30:09;4.15;;;3.55;;
20008;SDS011;10165;42.662;23.260;2022-08-19T11:32:39;5.40;;;4.03;;
20008;SDS011;10165;42.662;23.260;2022-08-19T11:35:16;8.23;;;4.20;;
20008;SDS011;10165;42.662;23.260;2022-08-19T11:37:46;6.70;;;3.72;;
20008;SDS011;10165;42.662;23.260;2022-08-19T11:40:12;11.98;;;3.90;;
20008;SDS011;10165;42.662;23.260;2022-08-19T11:42:39;4.43;;;3.78;;
20008;SDS011;10165;42.662;23.260;2022-08-19T11:45:25;5.13;;;3.88;;
20008;SDS011;10165;42.662;23.260;2022-08-19T11:47:53;6.68;;;3.92;;
20008;SDS011;10165;42.662;23.260;2022-08-19T11:50:24;4.35;;;3.90;;
20008;SDS011;10165;42.662;23.260;2022-08-19T11:52:55;5.70;;;4.28;;
20008;SDS011;10165;42.662;23.260;2022-08-19T11:55:23;4.65;;;3.58;;
20008;SDS011;10165;42.662;23.260;2022-08-19T11:57:50;4.57;;;3.75;;
20008;SDS011;10165;42.662;23.260;2022-08-19T12:00:16;10.45;;;4.10;;
20008;SDS011;10165;42.662;23.260;2022-08-19T12:02:43;5.47;;;3.80;;
20008;SDS011;10165;42.662;23.260;2022-08-19T12:05:10;6.20;;;4.40;;
20008;SDS011;10165;42.662;23.260;2022-08-19T12:07:38;5.68;;;4.15;;
20008;SDS011;10165;42.662;23.260;2022-08-19T12:10:07;6.25;;;4.13;;
20008;SDS011;10165;42.662;23.260;2022-08-19T12:12:36;4.10;;;3.70;;
20008;SDS011;10165;42.662;23.260;2022-08-19T12:15:06;8.52;;;4.35;;
20008;SDS011;10165;42.662;23.260;2022-08-19T12:17:34;7.38;;;4.15;;
20008;SDS011;10165;42.662;23.260;2022-08-19T12:20:01;5.93;;;3.83;;
20008;SDS011;10165;42.662;23.260;2022-08-19T12:22:27;5.28;;;3.85;;
20008;SDS011;10165;42.662;23.260;2022-08-19T12:24:54;4.18;;;3.78;;
20008;SDS011;10165;42.662;23.260;2022-08-19T12:27:21;6.03;;;4.05;;
20008;SDS011;10165;42.662;23.260;2022-08-19T12:30:07;4.93;;;4.18;;
20008;SDS011;10165;42.662;23.260;2022-08-19T12:32:36;3.95;;;3.50;;
20008;SDS011;10165;42.662;23.260;2022-08-19T12:35:07;4.68;;;3.45;;
20008;SDS011;10165;42.662;23.260;2022-08-19T12:37:38;3.95;;;3.58;;
20008;SDS011;10165;42.662;23.260;2022-08-19T12:40:05;4.70;;;3.90;;
20008;SDS011;10165;42.662;23.260;2022-08-19T12:42:32;11.13;;;3.78;;
20008;SDS011;10165;42.662;23.260;2022-08-19T12:44:59;4.25;;;3.85;;
20008;SDS011;10165;42.662;23.260;2022-08-19T12:47:26;4.18;;;3.78;;
20008;SDS011;10165;42.662;23.260;2022-08-19T12:49:53;4.38;;;3.83;;
20008;SDS011;10165;42.662;23.260;2022-08-19T12:52:24;6.72;;;4.10;;
20008;SDS011;10165;42.662;23.260;2022-08-19T12:54:54;5.45;;;3.92;;
20008;SDS011;10165;42.662;23.260;2022-08-19T12:57:23;5.57;;;3.58;;
20008;SDS011;10165;42.662;23.260;2022-08-19T12:59:59;8.10;;;4.32;;
20008;SDS011;10165;42.662;23.260;2022-08-19T13:02:35;6.22;;;4.10;;
20008;SDS011;10165;42.662;23.260;2022-08-19T13:05:04;6.03;;;4.03;;
20008;SDS011;10165;42.662;23.260;2022-08-19T13:07:34;5.40;;;4.25;;
20008;SDS011;10165;42.662;23.260;2022-08-19T13:10:02;6.32;;;3.95;;
20008;SDS011;10165;42.662;23.260;2022-08-19T13:12:29;4.75;;;3.95;;
20008;SDS011;10165;42.662;23.260;2022-08-19T13:15:01;10.10;;;4.43;;
20008;SDS011;10165;42.662;23.260;2022-08-19T13:17:36;4.35;;;3.55;;
20008;SDS011;10165;42.662;23.260;2022-08-19T13:20:03;5.60;;;3.58;;
20008;SDS011;10165;42.662;23.260;2022-08-19T13:22:32;11.00;;;4.10;;
20008;SDS011;10165;42.662;23.260;2022-08-19T13:24:59;4.22;;;3.58;;
20008;SDS011;10165;42.662;23.260;2022-08-19T13:27:26;5.68;;;3.80;;
20008;SDS011;10165;42.662;23.260;2022-08-19T13:29:53;5.10;;;4.10;;
20008;SDS011;10165;42.662;23.260;2022-08-19T13:32:38;9.35;;;3.80;;
20008;SDS011;10165;42.662;23.260;2022-08-19T13:35:23;5.03;;;3.38;;
20008;SDS011;10165;42.662;23.260;2022-08-19T13:37:50;4.72;;;4.20;;
20008;SDS011;10165;42.662;23.260;2022-08-19T13:40:21;4.38;;;3.45;;
20008;SDS011;10165;42.662;23.260;2022-08-19T13:42:50;6.88;;;3.80;;
20008;SDS011;10165;42.662;23.260;2022-08-19T13:45:20;5.70;;;3.83;;
20008;SDS011;10165;42.662;23.260;2022-08-19T13:47:51;5.93;;;3.92;;
20008;SDS011;10165;42.662;23.260;2022-08-19T13:50:28;6.22;;;3.40;;
20008;SDS011;10165;42.662;23.260;2022-08-19T13:53:00;6.43;;;3.80;;
20008;SDS011;10165;42.662;23.260;2022-08-19T13:55:28;7.05;;;3.80;;
20008;SDS011;10165;42.662;23.260;2022-08-19T13:57:56;5.95;;;4.22;;
20008;SDS011;10165;42.662;23.260;2022-08-19T14:00:25;5.97;;;4.22;;
20008;SDS011;10165;42.662;23.260;2022-08-19T14:02:56;6.72;;;3.63;;
20008;SDS011;10165;42.662;23.260;2022-08-19T14:05:24;7.22;;;3.58;;
20008;SDS011;10165;42.662;23.260;2022-08-19T14:07:52;5.80;;;3.67;;
20008;SDS011;10165;42.662;23.260;2022-08-19T14:10:20;6.90;;;3.83;;
20008;SDS011;10165;42.662;23.260;2022-08-19T14:12:48;6.38;;;4.00;;
20008;SDS011;10165;42.662;23.260;2022-08-19T14:15:14;8.55;;;4.18;;
20008;SDS011;10165;42.662;23.260;2022-08-19T14:17:43;7.90;;;4.22;;
20008;SDS011;10165;42.662;23.260;2022-08-19T14:20:11;5.65;;;3.90;;
20008;SDS011;10165;42.662;23.260;2022-08-19T14:22:44;4.68;;;4.13;;
20008;SDS011;10165;42.662;23.260;2022-08-19T14:25:14;6.22;;;4.00;;
20008;SDS011;10165;42.662;23.260;2022-08-19T14:27:43;5.97;;;3.88;;
20008;SDS011;10165;42.662;23.260;2022-08-19T14:30:12;10.05;;;4.35;;
20008;SDS011;10165;42.662;23.260;2022-08-19T14:32:41;5.22;;;3.90;;
20008;SDS011;10165;42.662;23.260;2022-08-19T14:35:09;5.95;;;4.13;;
20008;SDS011;10165;42.662;23.260;2022-08-19T14:37:39;5.88;;;4.45;;
20008;SDS011;10165;42.662;23.260;2022-08-19T14:40:21;4.43;;;4.03;;
20008;SDS011;10165;42.662;23.260;2022-08-19T14:42:53;7.63;;;4.40;;
20008;SDS011;10165;42.662;23.260;2022-08-19T14:45:34;7.05;;;4.32;;
20008;SDS011;10165;42.662;23.260;2022-08-19T14:48:06;6.07;;;4.15;;
20008;SDS011;10165;42.662;23.260;2022-08-19T14:50:44;5.40;;;4.07;;
20008;SDS011;10165;42.662;23.260;2022-08-19T14:53:11;4.93;;;4.05;;
20008;SDS011;10165;42.662;23.260;2022-08-19T14:55:44;6.70;;;4.28;;
20008;SDS011;10165;42.662;23.260;2022-08-19T14:58:12;6.53;;;3.80;;
20008;SDS011;10165;42.662;23.260;2022-08-19T15:00:56;5.65;;;4.55;;
20008;SDS011;10165;42.662;23.260;2022-08-19T15:03:23;6.93;;;4.72;;
20008;SDS011;10165;42.662;23.260;2022-08-19T15:05:50;4.82;;;4.32;;
20008;SDS011;10165;42.662;23.260;2022-08-19T15:08:17;6.22;;;4.43;;
20008;SDS011;10165;42.662;23.260;2022-08-19T15:10:43;5.13;;;4.32;;
20008;SDS011;10165;42.662;23.260;2022-08-19T15:13:11;6.72;;;4.45;;